createdAt,value
2019-05-12T00:00:07.962Z,1.87
2019-05-12T00:02:36.099Z,1.67
2019-05-12T00:05:03.274Z,1.63
2019-05-12T00:07:30.459Z,1.60
2019-05-12T00:09:58.207Z,1.57
2019-05-12T00:12:27.817Z,1.33
2019-05-12T00:14:54.774Z,1.50
2019-05-12T00:17:21.980Z,1.63
2019-05-12T00:19:49.210Z,1.50
2019-05-12T00:22:18.170Z,1.83
2019-05-12T00:24:47.748Z,2.10
2019-05-12T00:27:18.853Z,1.80
2019-05-12T00:29:48.382Z,1.50
2019-05-12T00:32:14.928Z,1.60
2019-05-12T00:34:42.107Z,2.00
2019-05-12T00:37:09.266Z,1.60
2019-05-12T00:39:38.245Z,1.80
2019-05-12T00:42:07.672Z,1.70
2019-05-12T00:44:34.218Z,1.60
2019-05-12T00:47:01.425Z,3.10
2019-05-12T00:49:29.055Z,1.73
2019-05-12T00:51:58.578Z,1.40
2019-05-12T00:54:25.559Z,2.10
2019-05-12T00:56:52.747Z,1.90
2019-05-12T00:59:19.918Z,1.80
2019-05-12T01:01:48.170Z,1.80
2019-05-12T01:04:17.503Z,1.77
2019-05-12T01:06:44.530Z,2.10
2019-05-12T01:09:11.714Z,2.60
2019-05-12T01:11:39.846Z,2.13
2019-05-12T01:14:08.552Z,2.17
2019-05-12T01:16:38.327Z,2.30
2019-05-12T01:19:04.820Z,1.67
2019-05-12T01:21:31.997Z,1.87
2019-05-12T01:24:03.382Z,1.83
2019-05-12T01:26:28.453Z,1.80
2019-05-12T01:28:57.916Z,1.90
2019-05-12T01:31:28.473Z,2.10
2019-05-12T01:33:55.370Z,1.97
2019-05-12T01:36:22.568Z,1.97
2019-05-12T01:38:49.738Z,1.80
2019-05-12T01:41:18.020Z,2.13
2019-05-12T01:43:45.559Z,1.80
2019-05-12T01:46:12.722Z,1.87
2019-05-12T01:48:39.898Z,3.50
2019-05-12T01:51:08.362Z,2.10
2019-05-12T01:53:37.850Z,1.90
2019-05-12T01:56:04.893Z,1.93
2019-05-12T01:58:32.107Z,2.00
2019-05-12T02:00:59.286Z,1.77
2019-05-12T02:03:28.432Z,1.93
2019-05-12T02:05:59.700Z,1.40
2019-05-12T02:08:28.498Z,1.73
2019-05-12T02:10:58.497Z,1.97
2019-05-12T02:13:27.714Z,3.03
2019-05-12T02:15:55.277Z,2.23
2019-05-12T02:18:22.455Z,2.17
2019-05-12T02:20:49.619Z,1.63
2019-05-12T02:23:17.865Z,1.47
2019-05-12T02:25:45.425Z,1.77
2019-05-12T02:28:12.608Z,1.60
2019-05-12T02:30:41.412Z,2.00
2019-05-12T02:33:08.747Z,1.60
2019-05-12T02:35:35.988Z,1.67
2019-05-12T02:38:04.793Z,2.30
2019-05-12T02:40:34.744Z,1.93
2019-05-12T02:43:04.850Z,2.60
2019-05-12T02:45:30.391Z,1.80
2019-05-12T02:47:57.565Z,1.80
2019-05-12T02:50:29.266Z,1.83
2019-05-12T02:52:56.432Z,2.20
2019-05-12T02:55:25.656Z,2.23
2019-05-12T02:57:55.040Z,1.67
2019-05-12T03:00:23.991Z,1.97
2019-05-12T03:02:50.670Z,2.63
2019-05-12T03:05:17.835Z,2.03
2019-05-12T03:07:45.018Z,1.77
2019-05-12T03:10:14.637Z,1.53
2019-05-12T03:12:44.754Z,2.00
2019-05-12T03:15:09.960Z,2.00
2019-05-12T03:17:37.138Z,1.90
2019-05-12T03:20:06.123Z,1.80
2019-05-12T03:22:35.287Z,1.70
2019-05-12T03:25:14.631Z,1.73
2019-05-12T03:27:31.128Z,1.90
2019-05-12T03:29:58.324Z,1.60
2019-05-12T03:32:27.617Z,1.80
2019-05-12T03:34:57.845Z,1.80
2019-05-12T03:37:30.656Z,1.70
2019-05-12T03:39:54.536Z,1.97
2019-05-12T03:42:24.787Z,2.73
2019-05-12T03:44:50.020Z,1.70
2019-05-12T03:47:17.183Z,1.97
2019-05-12T03:49:45.426Z,1.60
2019-05-12T03:52:15.302Z,2.07
2019-05-12T03:54:45.205Z,1.70
2019-05-12T03:57:14.754Z,1.73
2019-05-12T03:59:40.450Z,1.50
2019-05-12T04:02:07.634Z,1.63
2019-05-12T04:04:34.936Z,1.73
2019-05-12T04:07:05.121Z,1.70
2019-05-12T04:09:31.117Z,1.50
2019-05-12T04:11:58.279Z,1.57
2019-05-12T04:14:25.537Z,2.17
2019-05-12T04:16:55.124Z,1.93
2019-05-12T04:19:24.622Z,1.83
2019-05-12T04:21:50.704Z,1.70
2019-05-12T04:24:17.874Z,1.73
2019-05-12T04:26:45.197Z,1.90
2019-05-12T04:29:15.470Z,2.20
2019-05-12T04:31:44.292Z,1.93
2019-05-12T04:34:14.705Z,2.27
2019-05-12T04:36:39.649Z,1.90
2019-05-12T04:39:07.698Z,2.13
2019-05-12T04:41:35.552Z,1.90
2019-05-12T04:44:05.817Z,2.73
2019-05-12T04:46:34.599Z,1.97
2019-05-12T04:49:00.940Z,1.50
2019-05-12T04:51:28.104Z,1.57
2019-05-12T04:53:55.361Z,1.80
2019-05-12T04:56:24.925Z,2.30
2019-05-12T04:58:54.328Z,2.10
2019-05-12T05:01:20.382Z,1.50
2019-05-12T05:03:47.541Z,1.90
2019-05-12T05:06:15.075Z,2.83
2019-05-12T05:08:44.313Z,1.93
2019-05-12T05:11:13.995Z,1.93
2019-05-12T05:13:40.362Z,1.53
2019-05-12T05:16:07.526Z,1.80
2019-05-12T05:18:34.706Z,1.30
2019-05-12T05:21:01.861Z,1.70
2019-05-12T05:23:29.035Z,2.03
2019-05-12T05:25:56.199Z,1.57
2019-05-12T05:28:23.693Z,1.60
2019-05-12T05:30:53.346Z,1.17
2019-05-12T05:33:20.121Z,2.03
2019-05-12T05:35:47.699Z,2.27
2019-05-12T05:38:20.567Z,1.50
2019-05-12T05:40:44.507Z,1.33
2019-05-12T05:43:13.086Z,1.40
2019-05-12T05:45:40.566Z,1.40
2019-05-12T05:48:10.171Z,1.53
2019-05-12T05:50:36.650Z,1.43
2019-05-12T05:53:04.290Z,1.83
2019-05-12T05:55:34.284Z,2.27
2019-05-12T05:58:05.762Z,1.37
2019-05-12T06:00:29.966Z,1.70
2019-05-12T06:02:57.156Z,1.40
2019-05-12T06:05:26.268Z,1.70
2019-05-12T06:07:53.618Z,1.50
2019-05-12T06:10:21.073Z,1.70
2019-05-12T06:12:50.794Z,2.27
2019-05-12T06:15:17.143Z,1.60
2019-05-12T06:17:44.318Z,1.50
2019-05-12T06:20:13.474Z,1.50
2019-05-12T06:22:40.388Z,1.63
2019-05-12T06:25:07.583Z,1.60
2019-05-12T06:27:35.961Z,1.40
2019-05-12T06:30:06.364Z,1.50
2019-05-12T06:32:33.888Z,1.87
2019-05-12T06:35:02.227Z,1.30
2019-05-12T06:37:29.966Z,1.73
2019-05-12T06:40:00.525Z,1.47
2019-05-12T06:42:26.065Z,1.33
2019-05-12T06:44:54.887Z,1.73
2019-05-12T06:47:24.026Z,1.33
2019-05-12T06:49:56.463Z,2.00
2019-05-12T06:52:19.915Z,1.30
2019-05-12T06:54:51.133Z,1.40
2019-05-12T06:57:22.215Z,1.33
2019-05-12T06:59:50.869Z,2.50
2019-05-12T07:02:13.910Z,1.43
2019-05-12T07:04:49.753Z,1.17
2019-05-12T07:07:10.409Z,1.40
2019-05-12T07:09:50.100Z,1.47
2019-05-12T07:12:07.416Z,1.17
2019-05-12T07:14:35.423Z,1.97
2019-05-12T07:17:05.942Z,1.50
2019-05-12T07:19:33.742Z,1.30
2019-05-12T07:22:03.413Z,2.23
2019-05-12T07:24:29.983Z,1.10
2019-05-12T07:27:04.303Z,0.87
2019-05-12T07:29:26.049Z,1.27
2019-05-12T07:31:53.779Z,1.40
2019-05-12T07:34:23.819Z,1.43
2019-05-12T07:36:50.458Z,2.07
2019-05-12T07:39:17.713Z,1.10
2019-05-12T07:41:51.001Z,2.20
2019-05-12T07:44:14.273Z,1.07
2019-05-12T07:46:47.760Z,1.20
2019-05-12T07:49:11.039Z,1.60
2019-05-12T07:51:40.501Z,1.97
2019-05-12T07:54:07.112Z,1.03
2019-05-12T07:56:35.757Z,1.10
2019-05-12T07:59:04.371Z,1.20
2019-05-12T08:01:35.940Z,1.20
2019-05-12T08:04:01.469Z,1.40
2019-05-12T08:06:32.702Z,1.33
2019-05-12T08:08:59.189Z,1.53
2019-05-12T08:11:28.834Z,1.70
2019-05-12T08:13:55.455Z,1.33
2019-05-12T08:16:25.782Z,1.30
2019-05-12T08:18:53.436Z,1.30
2019-05-12T08:21:20.423Z,1.33
2019-05-12T08:23:47.601Z,1.40
2019-05-12T08:26:18.574Z,1.10
2019-05-12T08:28:44.175Z,1.07
2019-05-12T08:31:13.966Z,0.90
2019-05-12T08:33:40.825Z,1.20
2019-05-12T08:36:11.511Z,1.10
2019-05-12T08:38:36.911Z,1.00
2019-05-12T08:41:04.351Z,0.93
2019-05-12T08:43:33.911Z,1.17
2019-05-12T08:46:10.016Z,0.70
2019-05-12T08:48:29.454Z,1.60
2019-05-12T08:50:56.703Z,0.80
2019-05-12T08:53:26.109Z,1.17
2019-05-12T08:55:53.904Z,0.70
2019-05-12T08:58:31.390Z,1.57
2019-05-12T09:00:50.699Z,1.00
2019-05-12T09:03:20.616Z,0.90
2019-05-12T09:05:48.046Z,0.80
2019-05-12T09:08:15.208Z,0.87
2019-05-12T09:10:44.959Z,1.20
2019-05-12T09:13:11.270Z,1.53
2019-05-12T09:15:38.430Z,0.90
2019-05-12T09:18:05.638Z,1.13
2019-05-12T09:20:33.637Z,1.30
2019-05-12T09:23:02.100Z,1.17
2019-05-12T09:25:29.709Z,1.10
2019-05-12T09:27:56.874Z,1.07
2019-05-12T09:30:27.618Z,0.90
2019-05-12T09:32:56.131Z,1.10
2019-05-12T09:35:28.652Z,1.10
2019-05-12T09:37:53.609Z,1.03
2019-05-12T09:40:22.679Z,1.00
2019-05-12T09:42:50.077Z,1.20
2019-05-12T09:45:17.258Z,1.00
2019-05-12T09:47:44.430Z,1.07
2019-05-12T09:50:18.213Z,0.70
2019-05-12T09:52:40.491Z,1.07
2019-05-12T09:55:07.666Z,1.00
2019-05-12T09:57:40.714Z,0.90
2019-05-12T10:00:05.367Z,1.53
2019-05-12T10:02:33.062Z,1.40
2019-05-12T10:05:00.832Z,0.87
2019-05-12T10:07:29.014Z,1.10
2019-05-12T10:09:58.859Z,1.80
2019-05-12T10:12:25.091Z,1.17
2019-05-12T10:14:53.520Z,1.13
2019-05-12T10:17:28.429Z,1.00
2019-05-12T10:19:56.284Z,1.07
2019-05-12T10:22:18.993Z,2.20
2019-05-12T10:24:55.264Z,0.90
2019-05-12T10:27:15.074Z,0.93
2019-05-12T10:29:43.731Z,0.90
2019-05-12T10:32:13.242Z,0.90
2019-05-12T10:34:40.464Z,0.80
2019-05-12T10:37:08.274Z,0.90
2019-05-12T10:39:35.469Z,1.30
2019-05-12T10:42:02.647Z,1.13
2019-05-12T10:44:35.897Z,0.80
2019-05-12T10:47:00.426Z,0.80
2019-05-12T10:49:27.622Z,1.00
2019-05-12T10:51:54.781Z,0.90
2019-05-12T10:54:23.985Z,0.93
2019-05-12T10:56:50.855Z,0.60
2019-05-12T10:59:30.202Z,0.97
2019-05-12T11:01:49.031Z,1.00
2019-05-12T11:04:15.839Z,1.17
2019-05-12T11:06:44.685Z,0.60
2019-05-12T11:09:13.599Z,0.83
2019-05-12T11:11:43.725Z,0.63
2019-05-12T11:14:09.710Z,0.73
2019-05-12T11:16:36.883Z,1.20
2019-05-12T11:19:08.770Z,1.30
2019-05-12T11:21:33.662Z,1.43
2019-05-12T11:24:03.744Z,1.07
2019-05-12T11:26:30.269Z,1.10
2019-05-12T11:28:57.447Z,1.03
2019-05-12T11:31:24.614Z,0.77
2019-05-12T11:33:53.947Z,1.00
2019-05-12T11:36:21.337Z,0.83
2019-05-12T11:38:48.514Z,1.00
2019-05-12T11:41:20.108Z,1.43
2019-05-12T11:43:44.578Z,0.90
2019-05-12T11:46:11.778Z,1.00
2019-05-12T11:48:40.346Z,1.23
2019-05-12T11:51:07.859Z,0.90
2019-05-12T11:53:35.161Z,0.90
2019-05-12T11:56:07.717Z,1.17
2019-05-12T11:58:33.523Z,0.70
2019-05-12T12:01:04.768Z,1.70
2019-05-12T12:03:33.556Z,0.70
2019-05-12T12:06:00.226Z,1.27
2019-05-12T12:08:35.740Z,1.27
2019-05-12T12:10:56.294Z,0.80
2019-05-12T12:13:28.210Z,0.70
2019-05-12T12:15:54.473Z,1.07
2019-05-12T12:18:23.553Z,1.00
2019-05-12T12:20:57.131Z,1.53
2019-05-12T12:23:20.181Z,1.00
2019-05-12T12:25:48.544Z,0.80
2019-05-12T12:28:16.243Z,1.03
2019-05-12T12:30:47.449Z,0.83
2019-05-12T12:33:14.142Z,1.20
2019-05-12T12:35:41.207Z,1.27
2019-05-12T12:38:08.369Z,0.80
2019-05-12T12:40:35.531Z,0.80
2019-05-12T12:43:03.815Z,1.00
2019-05-12T12:45:36.857Z,1.10
2019-05-12T12:48:02.122Z,1.27
2019-05-12T12:50:30.660Z,1.10
2019-05-12T12:52:58.239Z,1.57
2019-05-12T12:55:25.422Z,0.80
2019-05-12T12:57:52.610Z,0.90
2019-05-12T13:00:29.906Z,0.53
2019-05-12T13:02:49.384Z,0.60
2019-05-12T13:05:17.227Z,1.70
2019-05-12T13:07:44.390Z,0.87
2019-05-12T13:10:14.028Z,0.90
2019-05-12T13:12:40.467Z,0.87
2019-05-12T13:15:07.639Z,0.97
2019-05-12T13:17:40.085Z,0.83
2019-05-12T13:20:05.473Z,0.97
2019-05-12T13:22:33.742Z,1.00
2019-05-12T13:25:04.297Z,0.70
2019-05-12T13:27:29.871Z,0.77
2019-05-12T13:29:57.046Z,0.77
2019-05-12T13:32:32.119Z,1.17
2019-05-12T13:34:53.125Z,0.70
2019-05-12T13:37:20.298Z,1.57
2019-05-12T13:39:55.457Z,1.00
2019-05-12T13:42:16.367Z,1.00
2019-05-12T13:44:44.300Z,0.90
2019-05-12T13:47:13.896Z,0.90
2019-05-12T13:49:44.570Z,1.67
2019-05-12T13:52:09.263Z,1.80
2019-05-12T13:54:36.426Z,0.77
2019-05-12T13:57:11.591Z,0.77
2019-05-12T13:59:34.088Z,0.90
2019-05-12T14:02:03.284Z,1.20
2019-05-12T14:04:30.293Z,0.80
2019-05-12T14:06:57.498Z,1.17
2019-05-12T14:09:24.731Z,1.00
2019-05-12T14:11:53.839Z,0.70
2019-05-12T14:14:20.798Z,1.03
2019-05-12T14:16:57.671Z,1.20
2019-05-12T14:19:16.876Z,1.43
2019-05-12T14:21:44.068Z,0.90
2019-05-12T14:24:11.229Z,2.07
2019-05-12T14:26:39.434Z,1.23
2019-05-12T14:29:07.352Z,1.00
2019-05-12T14:31:36.294Z,0.80
2019-05-12T14:34:04.289Z,1.00
2019-05-12T14:36:32.140Z,0.80
2019-05-12T14:39:00.331Z,0.90
2019-05-12T14:41:28.329Z,0.50
2019-05-12T14:44:01.667Z,1.10
2019-05-12T14:46:24.458Z,1.00
2019-05-12T14:48:51.647Z,0.97
2019-05-12T14:51:18.822Z,1.30
2019-05-12T14:53:48.049Z,1.33
2019-05-12T14:56:14.950Z,0.70
2019-05-12T14:58:44.219Z,1.43
2019-05-12T15:01:11.482Z,0.93
2019-05-12T15:03:42.213Z,0.80
2019-05-12T15:06:07.826Z,1.10
2019-05-12T15:08:39.982Z,1.20
2019-05-12T15:11:04.320Z,1.40
2019-05-12T15:13:31.503Z,0.50
2019-05-12T15:16:00.173Z,1.73
2019-05-12T15:18:27.707Z,1.23
2019-05-12T15:20:54.882Z,0.60
2019-05-12T15:23:23.863Z,0.73
2019-05-12T15:25:51.086Z,0.80
2019-05-12T15:28:18.600Z,0.80
2019-05-12T15:30:45.758Z,0.60
2019-05-12T15:33:13.956Z,1.20
2019-05-12T15:35:43.663Z,0.50
2019-05-12T15:38:14.759Z,0.80
2019-05-12T15:40:39.286Z,0.77
2019-05-12T15:43:09.088Z,0.70
2019-05-12T15:45:35.370Z,0.87
2019-05-12T15:48:04.054Z,0.67
2019-05-12T15:50:34.159Z,1.17
2019-05-12T15:53:00.708Z,0.87
2019-05-12T15:55:32.975Z,1.27
2019-05-12T15:57:56.783Z,0.43
2019-05-12T16:00:24.428Z,0.90
2019-05-12T16:02:53.435Z,0.70
2019-05-12T16:05:28.771Z,0.80
2019-05-12T16:07:49.506Z,0.90
2019-05-12T16:10:16.687Z,1.17
2019-05-12T16:12:43.968Z,1.23
2019-05-12T16:15:16.473Z,0.80
2019-05-12T16:17:40.076Z,0.63
2019-05-12T16:20:07.262Z,1.10
2019-05-12T16:22:38.830Z,0.80
2019-05-12T16:25:04.512Z,0.80
2019-05-12T16:27:35.589Z,1.60
2019-05-12T16:30:01.426Z,1.23
2019-05-12T16:32:39.157Z,1.20
2019-05-12T16:34:57.490Z,1.30
2019-05-12T16:37:31.086Z,0.80
2019-05-12T16:39:54.078Z,0.90
2019-05-12T16:42:23.596Z,1.43
2019-05-12T16:44:55.433Z,1.70
2019-05-12T16:47:25.068Z,0.93
2019-05-12T16:49:48.390Z,0.70
2019-05-12T16:52:15.554Z,0.97
2019-05-12T16:54:43.912Z,0.90
2019-05-12T16:57:15.620Z,0.60
2019-05-12T16:59:40.270Z,0.90
2019-05-12T17:02:09.832Z,0.70
2019-05-12T17:04:36.355Z,1.20
2019-05-12T17:07:03.532Z,1.10
2019-05-12T17:09:30.700Z,0.77
2019-05-12T17:11:57.891Z,1.07
2019-05-12T17:14:28.292Z,1.27
2019-05-12T17:16:54.422Z,1.00
2019-05-12T17:19:23.666Z,1.57
2019-05-12T17:21:58.044Z,1.00
2019-05-12T17:24:19.495Z,0.67
2019-05-12T17:26:46.673Z,0.80
2019-05-12T17:29:13.981Z,0.77
2019-05-12T17:31:41.500Z,1.27
2019-05-12T17:34:10.215Z,0.90
2019-05-12T17:36:37.643Z,0.77
2019-05-12T17:39:06.583Z,1.00
2019-05-12T17:41:40.850Z,1.10
2019-05-12T17:44:04.309Z,0.97
2019-05-12T17:46:32.430Z,1.10
2019-05-12T17:49:00.783Z,1.40
2019-05-12T17:51:30.909Z,0.90
2019-05-12T17:53:56.871Z,1.00
2019-05-12T17:56:32.798Z,0.90
2019-05-12T17:58:52.944Z,1.00
2019-05-12T18:01:23.084Z,1.30
2019-05-12T18:03:50.657Z,1.53
2019-05-12T18:06:20.544Z,1.10
2019-05-12T18:08:46.823Z,1.00
2019-05-12T18:11:16.094Z,1.17
2019-05-12T18:13:42.894Z,0.97
2019-05-12T18:16:11.595Z,0.90
2019-05-12T18:18:38.978Z,1.40
2019-05-12T18:21:06.151Z,0.97
2019-05-12T18:23:34.432Z,1.23
2019-05-12T18:26:03.101Z,0.73
2019-05-12T18:28:33.287Z,1.13
2019-05-12T18:30:59.676Z,1.27
2019-05-12T18:33:33.466Z,1.83
2019-05-12T18:35:55.819Z,1.77
2019-05-12T18:38:26.294Z,1.00
2019-05-12T18:40:53.982Z,1.00
2019-05-12T18:43:20.798Z,1.17
2019-05-12T18:45:48.974Z,0.80
2019-05-12T18:48:21.982Z,0.43
2019-05-12T18:50:45.775Z,0.63
2019-05-12T18:53:16.718Z,0.80
2019-05-12T18:55:44.074Z,0.83
2019-05-12T18:58:10.739Z,0.57
2019-05-12T19:00:37.911Z,0.73
2019-05-12T19:03:08.698Z,0.70
2019-05-12T19:05:33.996Z,0.90
2019-05-12T19:08:03.533Z,0.70
2019-05-12T19:10:30.059Z,0.80
2019-05-12T19:13:01.747Z,2.10
2019-05-12T19:15:26.149Z,0.73
2019-05-12T19:17:54.177Z,0.83
2019-05-12T19:20:23.839Z,1.23
2019-05-12T19:22:57.458Z,0.90
2019-05-12T19:25:19.676Z,0.90
2019-05-12T19:27:55.009Z,0.73
2019-05-12T19:30:19.514Z,0.60
2019-05-12T19:32:45.239Z,1.37
2019-05-12T19:35:15.837Z,0.80
2019-05-12T19:37:43.076Z,0.87
2019-05-12T19:40:14.061Z,0.80
2019-05-12T19:42:39.518Z,0.90
2019-05-12T19:45:14.802Z,0.80
2019-05-12T19:47:38.285Z,0.80
2019-05-12T19:50:11.083Z,0.90
2019-05-12T19:52:34.888Z,0.70
2019-05-12T19:55:03.651Z,0.67
2019-05-12T19:57:33.137Z,0.97
2019-05-12T19:59:59.852Z,0.97
2019-05-12T20:02:27.059Z,0.70
2019-05-12T20:04:56.693Z,0.80
2019-05-12T20:07:23.425Z,1.00
2019-05-12T20:09:55.912Z,1.00
2019-05-12T20:12:20.112Z,0.93
2019-05-12T20:14:50.937Z,0.80
2019-05-12T20:17:16.560Z,0.83
2019-05-12T20:19:43.739Z,1.00
2019-05-12T20:22:10.939Z,0.73
2019-05-12T20:24:38.123Z,0.97
2019-05-12T20:27:10.431Z,1.20
2019-05-12T20:29:35.301Z,1.10
2019-05-12T20:32:04.705Z,1.30
2019-05-12T20:34:45.857Z,0.90
2019-05-12T20:37:06.851Z,1.47
2019-05-12T20:39:29.476Z,1.10
2019-05-12T20:42:00.896Z,1.10
2019-05-12T20:44:25.631Z,1.07
2019-05-12T20:46:56.037Z,0.83
2019-05-12T20:49:23.985Z,0.97
2019-05-12T20:51:54.898Z,2.00
2019-05-12T20:54:19.495Z,1.43
2019-05-12T20:56:47.012Z,1.07
2019-05-12T20:59:22.048Z,0.87
2019-05-12T21:01:44.266Z,1.20
2019-05-12T21:04:13.692Z,1.20
2019-05-12T21:06:41.896Z,1.20
2019-05-12T21:09:09.837Z,0.83
2019-05-12T21:11:37.042Z,1.30
2019-05-12T21:14:09.929Z,1.07
2019-05-12T21:16:38.433Z,1.47
2019-05-12T21:19:07.469Z,1.10
2019-05-12T21:21:34.122Z,1.70
2019-05-12T21:23:59.819Z,1.50
2019-05-12T21:26:28.611Z,1.33
2019-05-12T21:28:55.913Z,1.30
2019-05-12T21:31:29.013Z,0.97
2019-05-12T21:33:53.512Z,1.20
2019-05-12T21:36:24.475Z,1.30
2019-05-12T21:38:49.708Z,1.23
2019-05-12T21:41:16.930Z,0.97
2019-05-12T21:43:44.121Z,1.47
2019-05-12T21:46:13.202Z,1.33
2019-05-12T21:48:40.207Z,1.43
2019-05-12T21:51:09.764Z,1.67
2019-05-12T21:53:36.307Z,1.13
2019-05-12T21:56:04.530Z,0.93
2019-05-12T21:58:32.409Z,1.10
2019-05-12T22:01:04.455Z,0.80
2019-05-12T22:03:28.731Z,1.40
2019-05-12T22:05:55.962Z,1.03
2019-05-12T22:08:25.497Z,1.10
2019-05-12T22:10:54.199Z,1.47
2019-05-12T22:13:21.555Z,1.57
2019-05-12T22:15:51.307Z,1.93
2019-05-12T22:18:17.714Z,1.63
2019-05-12T22:20:46.387Z,1.00
2019-05-12T22:23:15.014Z,1.10
2019-05-12T22:25:43.514Z,1.23
2019-05-12T22:28:13.466Z,1.57
2019-05-12T22:30:40.499Z,1.27
2019-05-12T22:33:10.733Z,1.00
2019-05-12T22:35:36.579Z,1.33
2019-05-12T22:38:14.551Z,1.10
2019-05-12T22:40:32.650Z,1.13
2019-05-12T22:43:01.307Z,1.30
2019-05-12T22:45:28.754Z,1.27
2019-05-12T22:47:59.032Z,1.47
2019-05-12T22:50:27.350Z,1.77
2019-05-12T22:52:53.834Z,1.53
2019-05-12T22:55:26.154Z,2.10
2019-05-12T22:57:49.882Z,1.20
2019-05-12T23:00:19.315Z,1.40
2019-05-12T23:02:46.437Z,1.30
2019-05-12T23:05:16.964Z,1.93
2019-05-12T23:07:43.942Z,2.23
2019-05-12T23:10:14.146Z,1.60
2019-05-12T23:12:40.398Z,1.53
2019-05-12T23:15:07.661Z,1.30
2019-05-12T23:17:38.968Z,1.90
2019-05-12T23:20:05.666Z,2.30
2019-05-12T23:22:35.112Z,1.63
2019-05-12T23:25:03.792Z,1.30
2019-05-12T23:27:30.787Z,1.73
2019-05-12T23:30:01.669Z,1.47
2019-05-12T23:32:27.329Z,1.57
2019-05-12T23:34:58.513Z,2.30
2019-05-12T23:37:24.518Z,1.50
2019-05-12T23:39:53.759Z,1.57
2019-05-12T23:42:20.755Z,1.90
2019-05-12T23:44:47.950Z,2.20
2019-05-12T23:47:15.129Z,1.23
2019-05-12T23:49:44.421Z,1.33
2019-05-12T23:52:13.872Z,1.20
2019-05-12T23:54:40.111Z,1.40
2019-05-12T23:57:07.270Z,1.40
2019-05-12T23:59:34.470Z,1.80
